Terminal Aerodrome Forecast
Issued by NWS

Home | Current Version | Previous Version | Text Only | Print | Product List | Glossary On
Versions: 1 2 3 4 5 6 7 8 9 10 11 12 13 14 15 16 17 18 19 20 21 22 23 24 25 26 27 28 29 30 31
000
FTUS44 KFWD 251739
TAFGKY
TAF
KGKY 251739Z 2518/2618 32006KT P6SM -SHRA BKN040 OVC110
     FM251900 34006KT P6SM -SHRA VCTS BKN045CB OVC120
     FM260200 01013KT P6SM -SHRA BKN015
     FM261200 36012KT P6SM -SHRA BKN030
     FM261500 36011KT P6SM BKN035=

USA.gov is the U.S. government's official web portal to all federal, state and local government web resources and services.